createdAt,value
2023-02-23T00:01:27.714Z,29.93
2023-02-23T00:03:58.973Z,35.50
2023-02-23T00:06:27.801Z,33.07
2023-02-23T00:08:54.964Z,30.40
2023-02-23T00:11:22.193Z,34.00
2023-02-23T00:13:50.331Z,34.43
2023-02-23T00:16:22.645Z,32.97
2023-02-23T00:18:55.038Z,33.60
2023-02-23T00:21:35.389Z,26.50
2023-02-23T00:24:06.374Z,29.70
2023-02-23T00:26:35.133Z,32.60
2023-02-23T00:29:07.984Z,29.30
2023-02-23T00:31:35.080Z,32.33
2023-02-23T00:34:03.520Z,30.47
2023-02-23T00:36:33.311Z,31.83
2023-02-23T00:39:02.463Z,31.23
2023-02-23T00:41:29.919Z,30.57
2023-02-23T00:43:58.196Z,32.37
2023-02-23T00:46:27.631Z,28.73
2023-02-23T00:48:55.505Z,33.20
2023-02-23T00:51:23.385Z,34.57
2023-02-23T00:53:54.565Z,36.80
2023-02-23T00:56:21.981Z,37.97
2023-02-23T00:58:48.522Z,33.80
2023-02-23T01:01:15.942Z,37.07
2023-02-23T01:03:43.318Z,34.90
2023-02-23T01:06:13.132Z,29.40
2023-02-23T01:08:42.850Z,34.93
2023-02-23T01:11:14.829Z,32.97
2023-02-23T01:13:44.924Z,32.00
2023-02-23T01:16:13.913Z,36.00
2023-02-23T01:18:41.907Z,37.97
2023-02-23T01:21:18.978Z,39.73
2023-02-23T01:23:45.843Z,36.57
2023-02-23T01:26:34.025Z,39.50
2023-02-23T01:29:04.739Z,38.90
2023-02-23T01:31:31.687Z,38.07
2023-02-23T01:34:02.702Z,40.17
2023-02-23T01:36:29.908Z,32.17
2023-02-23T01:38:57.172Z,36.70
2023-02-23T01:41:25.238Z,37.30
2023-02-23T01:44:07.084Z,35.53
2023-02-23T01:46:45.209Z,35.03
2023-02-23T01:49:16.444Z,33.37
2023-02-23T01:51:50.023Z,34.43
2023-02-23T01:54:21.311Z,34.37
2023-02-23T01:56:57.897Z,34.17
2023-02-23T01:59:29.669Z,37.33
2023-02-23T02:04:44.309Z,31.17
2023-02-23T02:07:23.332Z,27.47
2023-02-23T02:10:11.345Z,33.07
2023-02-23T02:12:44.360Z,31.40
2023-02-23T02:15:17.285Z,34.30
2023-02-23T02:17:57.963Z,32.40
2023-02-23T02:20:33.552Z,28.67
2023-02-23T02:23:02.959Z,31.03
2023-02-23T02:25:44.406Z,31.70
2023-02-23T02:28:29.886Z,32.73
2023-02-23T02:31:45.058Z,24.40
2023-02-23T02:34:49.594Z,26.37
2023-02-23T02:37:22.857Z,30.40
2023-02-23T02:40:13.948Z,26.07
2023-02-23T02:42:55.368Z,32.20
2023-02-23T02:45:28.291Z,27.03
2023-02-23T02:48:02.747Z,27.90
2023-02-23T02:50:53.012Z,27.90
2023-02-23T02:53:29.458Z,26.03
2023-02-23T02:56:00.298Z,24.03
2023-02-23T02:58:27.848Z,26.90
2023-02-23T03:01:13.132Z,33.30
2023-02-23T03:04:02.244Z,28.50
2023-02-23T03:06:54.679Z,32.03
2023-02-23T03:10:17.774Z,29.60
2023-02-23T03:13:32.099Z,28.57
2023-02-23T03:16:54.029Z,30.00
2023-02-23T03:19:41.803Z,25.60
2023-02-23T03:22:33.266Z,31.90
2023-02-23T03:25:37.413Z,28.70
2023-02-23T03:28:31.397Z,28.10
2023-02-23T03:31:29.544Z,32.30
2023-02-23T03:34:38.178Z,30.97
2023-02-23T03:37:33.054Z,30.83
2023-02-23T03:40:28.878Z,32.63
2023-02-23T03:43:17.083Z,27.53
2023-02-23T03:46:06.912Z,31.27
2023-02-23T03:48:55.095Z,29.40
2023-02-23T03:51:43.657Z,27.07
2023-02-23T03:54:35.105Z,32.87
2023-02-23T03:57:24.191Z,32.00
2023-02-23T04:00:17.665Z,30.47
2023-02-23T04:03:06.759Z,30.43
2023-02-23T04:05:55.015Z,29.20
2023-02-23T04:08:43.907Z,30.07
2023-02-23T04:11:40.061Z,33.50
2023-02-23T04:14:16.801Z,30.37
2023-02-23T04:16:43.930Z,32.13
2023-02-23T04:19:11.219Z,32.90
2023-02-23T04:21:37.652Z,32.13
2023-02-23T04:24:04.308Z,33.17
2023-02-23T04:26:30.789Z,39.10
2023-02-23T04:28:57.302Z,33.60
2023-02-23T04:31:25.302Z,38.40
2023-02-23T04:33:52.119Z,35.87
2023-02-23T04:36:18.517Z,36.70
2023-02-23T04:38:44.935Z,38.30
2023-02-23T04:41:11.355Z,39.13
2023-02-23T04:43:37.697Z,38.67
2023-02-23T04:46:04.271Z,43.83
2023-02-23T04:48:30.688Z,46.50
2023-02-23T04:50:57.121Z,39.97
2023-02-23T04:53:23.951Z,42.70
2023-02-23T04:55:50.560Z,37.63
2023-02-23T04:58:16.937Z,30.30
2023-02-23T05:00:43.377Z,34.50
2023-02-23T05:03:10.681Z,31.33
2023-02-23T05:05:37.096Z,34.90
2023-02-23T05:08:03.571Z,34.93
2023-02-23T05:10:30.033Z,34.40
2023-02-23T05:12:58.071Z,35.57
2023-02-23T05:15:24.479Z,35.30
2023-02-23T05:17:50.909Z,34.17
2023-02-23T05:20:17.372Z,30.73
2023-02-23T05:22:43.832Z,32.97
2023-02-23T05:25:11.100Z,33.50
2023-02-23T05:27:37.949Z,30.47
2023-02-23T05:30:07.353Z,29.90
2023-02-23T05:32:34.753Z,33.30
2023-02-23T05:35:02.464Z,29.13
2023-02-23T05:37:28.860Z,32.03
2023-02-23T05:39:55.357Z,33.93
2023-02-23T05:42:21.860Z,29.80
2023-02-23T05:44:48.414Z,33.30
2023-02-23T05:47:14.806Z,33.00
2023-02-23T05:49:41.226Z,30.83
2023-02-23T05:52:08.409Z,28.60
2023-02-23T05:54:34.931Z,31.50
2023-02-23T05:57:01.927Z,29.70
2023-02-23T05:59:28.984Z,33.10
2023-02-23T06:01:55.804Z,33.50
2023-02-23T06:04:23.337Z,30.43
2023-02-23T06:06:50.045Z,30.37
2023-02-23T06:09:16.434Z,32.70
2023-02-23T06:11:42.844Z,33.93
2023-02-23T06:14:09.272Z,31.17
2023-02-23T06:16:35.792Z,32.07
2023-02-23T06:19:02.341Z,37.37
2023-02-23T06:21:28.747Z,38.93
2023-02-23T06:23:55.406Z,38.00
2023-02-23T06:26:21.783Z,38.53
2023-02-23T06:28:48.217Z,38.30
2023-02-23T06:31:14.637Z,37.37
2023-02-23T06:33:41.060Z,38.40
2023-02-23T06:36:08.000Z,42.07
2023-02-23T06:38:34.446Z,40.07
2023-02-23T06:41:00.896Z,37.60
2023-02-23T06:43:28.445Z,39.60
2023-02-23T06:45:55.619Z,41.10
2023-02-23T06:48:22.038Z,39.20
2023-02-23T06:50:48.493Z,42.53
2023-02-23T06:53:14.910Z,50.77
2023-02-23T06:55:41.340Z,44.17
2023-02-23T06:58:08.811Z,43.80
2023-02-23T07:00:35.367Z,45.83
2023-02-23T07:03:01.819Z,49.73
2023-02-23T07:05:28.676Z,54.00
2023-02-23T07:07:55.078Z,50.97
2023-02-23T07:10:21.754Z,57.40
2023-02-23T07:12:48.220Z,53.87
2023-02-23T07:15:17.666Z,56.07
2023-02-23T07:17:45.092Z,57.17
2023-02-23T07:20:12.223Z,54.73
2023-02-23T07:22:39.874Z,48.03
2023-02-23T07:25:07.246Z,54.27
2023-02-23T07:27:33.596Z,52.87
2023-02-23T07:30:00.004Z,54.03
2023-02-23T07:32:26.513Z,52.17
2023-02-23T07:34:53.989Z,58.87
2023-02-23T07:37:21.419Z,51.37
2023-02-23T07:39:47.917Z,51.27
2023-02-23T07:42:14.334Z,51.13
2023-02-23T07:44:40.770Z,52.90
2023-02-23T07:47:07.322Z,53.20
2023-02-23T07:49:34.478Z,55.87
2023-02-23T07:52:00.853Z,55.63
2023-02-23T07:54:27.336Z,53.10
2023-02-23T07:56:53.761Z,52.30
2023-02-23T07:59:20.435Z,46.60
2023-02-23T08:01:47.161Z,48.13
2023-02-23T08:04:13.602Z,49.00
2023-02-23T08:06:40.077Z,49.60
2023-02-23T08:09:07.272Z,52.80
2023-02-23T08:11:33.686Z,50.17
2023-02-23T08:14:00.362Z,48.80
2023-02-23T08:16:31.668Z,49.40
2023-02-23T08:18:59.402Z,50.20
2023-02-23T08:21:29.028Z,48.17
2023-02-23T08:23:56.857Z,47.33
2023-02-23T08:26:25.001Z,47.80
2023-02-23T08:28:52.545Z,45.77
2023-02-23T08:31:21.346Z,46.30
2023-02-23T08:33:48.106Z,44.07
2023-02-23T08:36:14.489Z,52.80
2023-02-23T08:38:40.899Z,48.07
2023-02-23T08:41:07.359Z,50.73
2023-02-23T08:43:33.821Z,50.77
2023-02-23T08:46:00.336Z,48.97
2023-02-23T08:48:26.912Z,47.97
2023-02-23T08:50:57.114Z,49.27
2023-02-23T08:53:25.521Z,45.90
2023-02-23T08:56:00.693Z,45.67
2023-02-23T08:58:28.712Z,48.47
2023-02-23T09:00:55.253Z,48.90
2023-02-23T09:03:23.128Z,45.70
2023-02-23T09:05:50.043Z,55.87
2023-02-23T09:08:16.524Z,47.63
2023-02-23T09:10:43.944Z,52.20
2023-02-23T09:13:12.060Z,52.30
2023-02-23T09:15:39.826Z,47.17
2023-02-23T09:18:07.767Z,50.47
2023-02-23T09:20:34.241Z,47.50
2023-02-23T09:23:00.645Z,45.77
2023-02-23T09:25:29.233Z,51.20
2023-02-23T09:27:57.024Z,47.70
2023-02-23T09:30:23.720Z,43.27
2023-02-23T09:32:51.207Z,45.33
2023-02-23T09:35:18.919Z,45.60
2023-02-23T09:37:48.596Z,44.30
2023-02-23T09:40:19.072Z,44.47
2023-02-23T09:43:04.343Z,43.70
2023-02-23T09:46:12.101Z,48.63
2023-02-23T09:48:39.603Z,41.77
2023-02-23T09:51:09.066Z,43.03
2023-02-23T09:53:48.397Z,41.37
2023-02-23T09:56:33.036Z,40.27
2023-02-23T09:59:00.825Z,39.20
2023-02-23T10:01:48.523Z,39.87
2023-02-23T10:04:28.713Z,39.17
2023-02-23T10:07:00.597Z,39.00
2023-02-23T10:09:35.972Z,36.50
2023-02-23T10:12:13.470Z,39.87
2023-02-23T10:15:04.110Z,40.57
2023-02-23T10:17:53.190Z,37.67
2023-02-23T10:20:34.858Z,37.00
2023-02-23T10:23:22.087Z,38.20
2023-02-23T10:25:50.805Z,38.10
2023-02-23T10:28:21.523Z,39.10
2023-02-23T10:30:50.499Z,39.93
2023-02-23T10:33:40.249Z,36.90
2023-02-23T10:36:37.053Z,36.10
2023-02-23T10:39:07.870Z,35.50
2023-02-23T10:41:38.128Z,36.50
2023-02-23T10:44:16.216Z,36.23
2023-02-23T10:46:46.485Z,40.07
2023-02-23T10:49:22.513Z,35.10
2023-02-23T10:51:52.354Z,38.33
2023-02-23T10:54:34.607Z,37.33
2023-02-23T10:57:01.766Z,40.57
2023-02-23T10:59:28.762Z,37.80
2023-02-23T11:02:02.232Z,35.10
2023-02-23T11:04:32.131Z,38.60
2023-02-23T11:07:22.364Z,40.07
2023-02-23T11:09:51.333Z,41.40
2023-02-23T11:12:22.723Z,36.80
2023-02-23T11:14:51.607Z,36.17
2023-02-23T11:17:33.143Z,37.87
2023-02-23T11:20:02.687Z,36.17
2023-02-23T11:22:34.924Z,37.17
2023-02-23T11:25:12.918Z,36.07
2023-02-23T11:27:39.656Z,38.33
2023-02-23T11:30:07.137Z,36.97
2023-02-23T11:32:42.365Z,35.77
2023-02-23T11:35:20.917Z,40.50
2023-02-23T11:37:49.055Z,34.50
2023-02-23T11:40:31.372Z,35.17
2023-02-23T11:43:13.517Z,33.73
2023-02-23T11:45:48.133Z,32.27
2023-02-23T11:48:28.688Z,33.33
2023-02-23T11:50:56.354Z,32.03
2023-02-23T11:53:31.491Z,26.07
2023-02-23T11:56:08.042Z,25.40
2023-02-23T11:58:40.144Z,26.90
2023-02-23T12:01:12.374Z,29.23
2023-02-23T12:03:49.118Z,29.37
2023-02-23T12:06:33.982Z,29.00
2023-02-23T12:09:23.646Z,32.10
2023-02-23T12:11:58.031Z,29.13
2023-02-23T12:14:33.921Z,27.00
2023-02-23T12:17:13.033Z,26.60
2023-02-23T12:19:46.534Z,29.83
2023-02-23T12:22:20.283Z,25.87
2023-02-23T12:25:04.942Z,31.13
2023-02-23T12:27:46.514Z,24.47
2023-02-23T12:30:43.821Z,27.50
2023-02-23T12:33:20.835Z,28.73
2023-02-23T12:36:26.204Z,27.20
2023-02-23T12:39:30.816Z,26.00
2023-02-23T12:42:28.364Z,27.97
2023-02-23T12:45:03.994Z,28.50
2023-02-23T12:47:43.536Z,29.73
2023-02-23T12:50:33.754Z,29.10
2023-02-23T12:53:08.369Z,27.03
2023-02-23T12:55:47.220Z,31.27
2023-02-23T12:58:32.344Z,31.07
2023-02-23T13:01:17.546Z,27.13
2023-02-23T13:04:02.833Z,26.30
2023-02-23T13:06:47.441Z,28.07
2023-02-23T13:09:48.439Z,24.43
2023-02-23T13:12:20.899Z,24.20
2023-02-23T13:15:18.408Z,27.20
2023-02-23T13:18:06.208Z,24.30
2023-02-23T13:20:38.607Z,22.33
2023-02-23T13:23:40.973Z,22.70
2023-02-23T13:26:24.752Z,26.30
2023-02-23T13:28:58.600Z,25.00
2023-02-23T13:31:29.355Z,30.67
2023-02-23T13:33:58.588Z,24.23
2023-02-23T13:36:27.581Z,26.63
2023-02-23T13:39:31.596Z,26.07
2023-02-23T13:42:21.995Z,24.23
2023-02-23T13:45:06.781Z,27.77
2023-02-23T13:47:42.859Z,24.40
2023-02-23T13:50:27.843Z,26.17
2023-02-23T13:52:58.685Z,21.83
2023-02-23T13:55:32.643Z,28.37
2023-02-23T13:58:15.288Z,28.27
2023-02-23T14:00:42.861Z,23.20
2023-02-23T14:03:23.087Z,19.87
2023-02-23T14:05:53.960Z,23.70
2023-02-23T14:08:32.684Z,21.37
2023-02-23T14:10:59.203Z,21.30
2023-02-23T14:13:34.799Z,26.87
2023-02-23T14:16:16.974Z,22.40
2023-02-23T14:19:08.192Z,23.17
2023-02-23T14:21:52.463Z,20.37
2023-02-23T14:24:24.542Z,23.20
2023-02-23T14:27:34.070Z,22.90
2023-02-23T14:30:11.407Z,22.20
2023-02-23T14:32:40.003Z,22.27
2023-02-23T14:35:33.757Z,21.93
2023-02-23T14:38:02.009Z,21.07
2023-02-23T14:40:34.827Z,22.77
2023-02-23T14:43:03.453Z,26.80
2023-02-23T14:45:38.034Z,28.33
2023-02-23T14:48:17.118Z,26.03
2023-02-23T14:50:43.953Z,27.83
2023-02-23T14:53:24.913Z,30.00
2023-02-23T14:55:51.275Z,34.20
2023-02-23T14:58:23.221Z,36.97
2023-02-23T15:00:51.913Z,32.93
2023-02-23T15:03:18.572Z,37.20
2023-02-23T15:05:52.526Z,37.23
2023-02-23T15:08:23.185Z,36.83
2023-02-23T15:10:52.679Z,35.40
2023-02-23T15:16:29.562Z,35.67
2023-02-23T15:19:33.226Z,33.93
2023-02-23T15:22:01.597Z,34.23
2023-02-23T15:24:33.024Z,28.87
2023-02-23T15:26:59.598Z,29.30
2023-02-23T15:29:32.584Z,30.23
2023-02-23T15:32:15.157Z,29.47
2023-02-23T15:34:41.794Z,29.70
2023-02-23T15:37:15.355Z,31.17
2023-02-23T15:39:56.920Z,32.73
2023-02-23T15:42:36.345Z,36.83
2023-02-23T15:45:11.676Z,40.97
2023-02-23T15:47:40.570Z,37.03
2023-02-23T15:50:20.128Z,41.60
2023-02-23T15:53:00.163Z,33.10
2023-02-23T15:55:36.759Z,35.60
2023-02-23T15:58:20.625Z,39.63
2023-02-23T16:00:55.333Z,40.87
2023-02-23T16:03:44.018Z,40.33
2023-02-23T16:06:32.870Z,41.13
2023-02-23T16:09:03.098Z,40.97
2023-02-23T16:11:37.677Z,46.37
2023-02-23T16:14:05.702Z,49.30
2023-02-23T16:16:35.288Z,49.57
2023-02-23T16:19:02.686Z,45.37
2023-02-23T16:21:35.368Z,46.20
2023-02-23T16:24:09.230Z,48.60
2023-02-23T16:26:44.647Z,51.30
2023-02-23T16:29:18.531Z,51.33
2023-02-23T16:31:48.017Z,44.87
2023-02-23T16:34:30.219Z,52.30
2023-02-23T16:37:23.081Z,49.03
2023-02-23T16:39:49.516Z,50.07
2023-02-23T16:42:30.206Z,49.60
2023-02-23T16:44:57.528Z,55.10
2023-02-23T16:47:23.881Z,50.03
2023-02-23T16:49:51.474Z,47.47
2023-02-23T16:52:23.759Z,48.63
2023-02-23T16:54:54.491Z,50.33
2023-02-23T16:57:27.079Z,51.63
2023-02-23T16:59:54.933Z,49.20
2023-02-23T17:02:24.275Z,50.03
2023-02-23T17:04:51.655Z,49.53
2023-02-23T17:07:22.797Z,51.30
2023-02-23T17:09:50.236Z,49.23
2023-02-23T17:12:21.486Z,56.37
2023-02-23T17:14:49.372Z,51.57
2023-02-23T17:17:18.045Z,54.87
2023-02-23T17:19:45.529Z,54.33
2023-02-23T17:22:12.488Z,51.00
2023-02-23T17:24:43.664Z,58.17
2023-02-23T17:27:10.279Z,53.93
2023-02-23T17:29:37.024Z,54.97
2023-02-23T17:32:03.738Z,57.80
2023-02-23T17:34:30.785Z,52.53
2023-02-23T17:36:57.211Z,49.57
2023-02-23T17:39:27.980Z,49.50
2023-02-23T17:41:54.662Z,50.77
2023-02-23T17:44:21.095Z,49.37
2023-02-23T17:46:48.555Z,51.00
2023-02-23T17:49:14.956Z,55.90
2023-02-23T17:51:41.396Z,55.23
2023-02-23T17:54:07.812Z,57.60
2023-02-23T17:56:34.469Z,57.37
2023-02-23T17:59:00.866Z,53.17
2023-02-23T18:01:27.371Z,51.40
2023-02-23T18:03:56.454Z,54.00
2023-02-23T18:06:22.906Z,56.27
2023-02-23T18:08:49.290Z,53.03
2023-02-23T18:11:18.560Z,58.23
2023-02-23T18:13:47.546Z,50.33
2023-02-23T18:16:14.483Z,55.93
2023-02-23T18:18:44.247Z,47.50
2023-02-23T18:21:13.249Z,48.87
2023-02-23T18:23:40.154Z,44.77
2023-02-23T18:26:09.672Z,42.97
2023-02-23T18:28:37.211Z,48.77
2023-02-23T18:31:04.438Z,45.67
2023-02-23T18:33:31.553Z,43.53
2023-02-23T18:35:58.219Z,41.23
2023-02-23T18:38:24.642Z,42.60
2023-02-23T18:40:51.072Z,46.37
2023-02-23T18:43:17.557Z,49.83
2023-02-23T18:45:43.940Z,44.80
2023-02-23T18:48:13.469Z,46.93
2023-02-23T18:50:41.309Z,42.90
2023-02-23T18:53:09.046Z,50.17
2023-02-23T18:55:37.762Z,41.90
2023-02-23T18:58:05.163Z,44.07
2023-02-23T19:00:36.948Z,42.63
2023-02-23T19:03:03.462Z,39.57
2023-02-23T19:05:30.035Z,43.20
2023-02-23T19:07:57.261Z,49.87
2023-02-23T19:10:23.681Z,44.77
2023-02-23T19:12:50.153Z,43.70
2023-02-23T19:15:16.691Z,46.50
2023-02-23T19:17:43.148Z,54.03
2023-02-23T19:20:13.544Z,51.37
2023-02-23T19:22:41.323Z,53.53
2023-02-23T19:25:11.527Z,52.23
2023-02-23T19:27:38.602Z,53.37
2023-02-23T19:30:08.660Z,53.40
2023-02-23T19:32:35.352Z,47.77
2023-02-23T19:35:01.841Z,52.40
2023-02-23T19:37:28.307Z,52.40
2023-02-23T19:39:54.661Z,56.57
2023-02-23T19:42:21.717Z,54.23
2023-02-23T19:44:48.109Z,55.10
2023-02-23T19:47:14.514Z,54.17
2023-02-23T19:49:40.898Z,54.07
2023-02-23T19:52:07.439Z,52.17
2023-02-23T19:54:37.736Z,51.97
2023-02-23T19:57:04.457Z,55.80
2023-02-23T19:59:30.823Z,54.00
2023-02-23T20:01:57.201Z,49.40
2023-02-23T20:04:23.635Z,51.63
2023-02-23T20:06:50.033Z,53.57
2023-02-23T20:09:16.428Z,60.50
2023-02-23T20:11:42.988Z,57.17
2023-02-23T20:14:09.922Z,54.97
2023-02-23T20:16:36.983Z,51.17
2023-02-23T20:19:05.420Z,52.70
2023-02-23T20:21:32.609Z,53.97
2023-02-23T20:24:01.483Z,56.37
2023-02-23T20:26:30.694Z,55.40
2023-02-23T20:28:58.062Z,50.60
2023-02-23T20:31:30.612Z,54.03
2023-02-23T20:33:59.301Z,58.57
2023-02-23T20:36:26.184Z,47.70
2023-02-23T20:38:52.958Z,50.67
2023-02-23T20:41:19.952Z,54.27
2023-02-23T20:43:46.668Z,61.00
2023-02-23T20:46:15.908Z,52.57
2023-02-23T20:48:42.752Z,56.87
2023-02-23T20:51:12.690Z,58.40
2023-02-23T20:53:40.528Z,56.23
2023-02-23T20:56:08.812Z,52.03
2023-02-23T20:58:35.416Z,54.23
2023-02-23T21:01:10.476Z,57.13
2023-02-23T21:03:36.915Z,48.87
2023-02-23T21:06:03.357Z,57.60
2023-02-23T21:08:30.600Z,61.47
2023-02-23T21:10:56.978Z,56.57
2023-02-23T21:13:26.368Z,62.57
2023-02-23T21:16:00.892Z,56.30
2023-02-23T21:18:28.170Z,55.17
2023-02-23T21:20:56.782Z,54.60
2023-02-23T21:23:26.251Z,51.00
2023-02-23T21:25:54.001Z,54.97
2023-02-23T21:28:21.117Z,56.57
2023-02-23T21:30:47.723Z,52.60
2023-02-23T21:33:14.580Z,49.53
2023-02-23T21:35:41.034Z,52.20
2023-02-23T21:38:08.281Z,52.83
2023-02-23T21:40:35.679Z,52.00
2023-02-23T21:43:06.508Z,50.30
2023-02-23T21:45:33.012Z,57.43
2023-02-23T21:47:59.470Z,58.00
2023-02-23T21:50:26.182Z,46.97
2023-02-23T21:52:57.771Z,54.90
2023-02-23T21:55:24.307Z,53.27
2023-02-23T21:57:52.006Z,50.50
2023-02-23T22:00:19.241Z,53.60
2023-02-23T22:02:46.654Z,53.60
2023-02-23T22:05:15.173Z,47.70
2023-02-23T22:07:46.820Z,50.77
2023-02-23T22:10:13.217Z,51.10
2023-02-23T22:12:39.661Z,51.20
2023-02-23T22:15:07.153Z,54.43
2023-02-23T22:17:33.806Z,52.27
2023-02-23T22:20:00.434Z,59.03
2023-02-23T22:22:27.288Z,50.63
2023-02-23T22:24:53.802Z,59.37
2023-02-23T22:27:20.405Z,64.43
2023-02-23T22:29:46.810Z,54.10
2023-02-23T22:32:13.327Z,56.47
2023-02-23T22:34:40.030Z,62.63
2023-02-23T22:37:06.519Z,60.90
2023-02-23T22:39:33.324Z,50.83
2023-02-23T22:41:59.791Z,61.27
2023-02-23T22:44:26.278Z,59.23
2023-02-23T22:46:53.168Z,53.93
2023-02-23T22:49:20.452Z,52.80
2023-02-23T22:51:47.216Z,54.53
2023-02-23T22:54:13.857Z,52.57
2023-02-23T22:56:42.349Z,55.20
2023-02-23T22:59:10.954Z,51.90
2023-02-23T23:01:38.822Z,47.97
2023-02-23T23:04:12.461Z,53.53
2023-02-23T23:06:41.190Z,54.37
2023-02-23T23:09:11.790Z,54.43
2023-02-23T23:11:41.698Z,53.17
2023-02-23T23:14:10.250Z,49.13
2023-02-23T23:16:47.416Z,57.57
2023-02-23T23:19:18.964Z,49.33
2023-02-23T23:21:46.107Z,51.53
2023-02-23T23:24:13.609Z,52.00
2023-02-23T23:26:40.868Z,54.17
2023-02-23T23:29:10.182Z,54.70
2023-02-23T23:31:38.332Z,53.77
2023-02-23T23:34:10.488Z,52.47
2023-02-23T23:36:53.099Z,54.80
2023-02-23T23:39:22.188Z,52.37
2023-02-23T23:41:49.786Z,48.07
2023-02-23T23:44:22.347Z,49.00
2023-02-23T23:46:50.812Z,47.50
2023-02-23T23:49:19.860Z,46.07
2023-02-23T23:51:51.518Z,49.17
2023-02-23T23:54:21.439Z,51.87
2023-02-23T23:56:49.498Z,49.30
2023-02-23T23:59:18.640Z,50.60
